| time (UTC) | temp F | wind direction | speed knots | gust knots | rain 1hr in | rain 24hr in | rain mn in | humidity % | barometer mb |
| 20260505184054 | 45 | 297 | 7.0 | 14.8 | 0.00 | 0.00 | 0.00 | 44 | 1012.0 |
| 20260505183555 | 46 | 270 | 7.8 | 13.9 | 0.00 | 0.00 | 0.00 | 43 | 1012.0 |
| 20260505183058 | 46 | 328 | 5.2 | 13.9 | 0.00 | 0.00 | 0.00 | 46 | 1012.0 |
| 20260505182550 | 45 | 291 | 5.2 | 13.9 | 0.00 | 0.00 | 0.00 | 46 | 1012.0 |
| 20260505182050 | 45 | 303 | 4.3 | 13.0 | 0.00 | 0.00 | 0.00 | 45 | 1012.0 |
| 20260505181550 | 45 | 337 | 6.1 | 12.2 | 0.00 | 0.00 | 0.00 | 45 | 1012.0 |
| 20260505181049 | 45 | 10 | 4.3 | 12.2 | 0.00 | 0.00 | 0.00 | 45 | 1012.0 |
| 20260505180549 | 45 | 250 | 5.2 | 12.2 | 0.00 | 0.00 | 0.00 | 44 | 1011.9 |
| 20260505180051 | 45 | 300 | 5.2 | 14.8 | 0.00 | 0.00 | 0.00 | 44 | 1011.9 |
| 20260505175548 | 45 | 328 | 5.2 | 14.8 | 0.00 | 0.00 | 0.00 | 46 | 1011.9 |
| 20260505175048 | 45 | 280 | 7.0 | 13.9 | 0.00 | 0.00 | 0.00 | 46 | 1011.8 |
| 20260505174648 | 45 | 269 | 7.0 | 13.9 | 0.00 | 0.00 | 0.00 | 46 | 1011.8 |
| 20260505174048 | 45 | 262 | 7.0 | 12.2 | 0.00 | 0.00 | 0.00 | 44 | 1011.8 |
| 20260505173547 | 45 | 98 | 5.2 | 15.6 | 0.00 | 0.00 | 0.00 | 44 | 1011.9 |
| 20260505173050 | 45 | 6 | 3.5 | 18.2 | 0.00 | 0.00 | 0.00 | 46 | 1011.9 |
| 20260505172550 | 45 | 350 | 6.1 | 18.2 | 0.00 | 0.00 | 0.00 | 44 | 1011.8 |
| 20260505172047 | 45 | 250 | 7.8 | 16.5 | 0.00 | 0.00 | 0.00 | 43 | 1011.7 |
| 20260505171547 | 45 | 290 | 7.8 | 13.0 | 0.00 | 0.00 | 0.00 | 44 | 1012.0 |
| 20260505171049 | 45 | 41 | 3.5 | 12.2 | 0.00 | 0.00 | 0.00 | 46 | 1012.0 |
| 20260505170548 | 44 | 357 | 4.3 | 13.0 | 0.00 | 0.00 | 0.00 | 46 | 1012.0 |
| 20260505170046 | 45 | 290 | 5.2 | 13.0 | 0.00 | 0.00 | 0.00 | 44 | 1012.0 |
| 20260505165545 | 45 | 274 | 3.5 | 16.5 | 0.00 | 0.00 | 0.00 | 43 | 1012.0 |
| 20260505165045 | 46 | 292 | 5.2 | 16.5 | 0.00 | 0.00 | 0.00 | 42 | 1012.0 |
| 20260505164557 | 46 | 326 | 6.1 | 11.3 | 0.00 | 0.00 | 0.00 | 43 | 1011.8 |
| 20260505164043 | 46 | 339 | 3.5 | 10.4 | 0.00 | 0.00 | 0.00 | 45 | 1011.9 |
| 20260505163542 | 45 | 317 | 2.6 | 10.4 | 0.00 | 0.00 | 0.00 | 47 | 1011.9 |
| 20260505163048 | 44 | 20 | 4.3 | 12.2 | 0.00 | 0.00 | 0.00 | 47 | 1011.9 |
| 20260505162545 | 45 | 12 | 6.1 | 12.2 | 0.00 | 0.00 | 0.00 | 45 | 1011.9 |
| 20260505162040 | 44 | 47 | 5.2 | 11.3 | 0.00 | 0.00 | 0.00 | 47 | 1011.9 |
| 20260505161543 | 44 | 266 | 4.3 | 12.2 | 0.00 | 0.00 | 0.00 | 46 | 1011.8 |
| 20260505161039 | 43 | 253 | 6.1 | 12.2 | 0.00 | 0.00 | 0.00 | 46 | 1011.9 |
| 20260505160539 | 43 | 56 | 6.1 | 10.4 | 0.00 | 0.00 | 0.00 | 46 | 1012.0 |
| 20260505153048 | 43 | 296 | 4.3 | 12.2 | 0.00 | 0.00 | 0.00 | 47 | 1011.8 |
| 20260505152535 | 42 | 332 | 4.3 | 12.2 | 0.00 | 0.00 | 0.00 | 48 | 1011.8 |
| 20260505152033 | 42 | 29 | 4.3 | 11.3 | 0.00 | 0.00 | 0.00 | 49 | 1011.8 |
| 20260505151541 | 43 | 336 | 5.2 | 11.3 | 0.00 | 0.00 | 0.00 | 48 | 1011.8 |
| 20260505151032 | 43 | 73 | 2.6 | 7.8 | 0.00 | 0.00 | 0.00 | 49 | 1011.7 |
| 20260505150532 | 43 | 309 | 4.3 | 7.8 | 0.00 | 0.00 | 0.00 | 48 | 1011.7 |
| 20260505140524 | 41 | 16 | 1.7 | 7.0 | 0.00 | 0.00 | 0.00 | 52 | 1011.3 |
| 20260505125016 | 37 | 60 | 4.3 | 8.7 | 0.00 | 0.00 | 0.00 | 54 | 1010.5 |
| 20260505124515 | 37 | 347 | 4.3 | 7.8 | 0.00 | 0.00 | 0.00 | 53 | 1010.5 |
| 20260505124017 | 37 | 51 | 4.3 | 10.4 | 0.00 | 0.00 | 0.00 | 54 | 1010.5 |
| 20260505123516 | 37 | 49 | 4.3 | 10.4 | 0.00 | 0.00 | 0.00 | 55 | 1010.4 |
| 20260505123012 | 37 | 352 | 3.5 | 8.7 | 0.00 | 0.00 | 0.00 | 55 | 1010.4 |
| 20260505122511 | 37 | 34 | 4.3 | 8.7 | 0.00 | 0.00 | 0.00 | 56 | 1010.3 |
| 20260505122013 | 37 | 8 | 2.6 | 6.1 | 0.00 | 0.00 | 0.00 | 56 | 1010.3 |
| 20260505121510 | 36 | 13 | 1.7 | 7.0 | 0.00 | 0.00 | 0.00 | 57 | 1010.1 |
| 20260505121010 | 36 | 60 | 0.9 | 7.8 | 0.00 | 0.00 | 0.00 | 58 | 1010.1 |
| 20260505120507 | 36 | 9 | 2.6 | 8.7 | 0.00 | 0.00 | 0.00 | 58 | 1010.0 |
| 20260505120007 | 36 | 349 | 2.6 | 7.0 | 0.00 | 0.00 | 0.00 | 60 | 1010.0 |
| 20260505115505 | 36 | 360 | 1.7 | 7.0 | 0.00 | 0.00 | 0.00 | 61 | 1009.9 |
| 20260505115004 | 35 | 13 | 1.7 | 5.2 | 0.00 | 0.00 | 0.00 | 64 | 1009.8 |
| 20260505114504 | 35 | 33 | 0.0 | 2.6 | 0.00 | 0.00 | 0.00 | 66 | 1009.9 |
| 20260505114004 | 35 | 42 | 0.9 | 3.5 | 0.00 | 0.00 | 0.00 | 67 | 1009.8 |
| 20260505113503 | 35 | 6 | 0.9 | 5.2 | 0.00 | 0.00 | 0.00 | 68 | 1009.7 |
| 20260505113001 | 34 | 351 | 1.7 | 5.2 | 0.00 | 0.00 | 0.00 | 68 | 1009.6 |
| 20260505112502 | 34 | 44 | 1.7 | 5.2 | 0.00 | 0.00 | 0.00 | 70 | 1009.5 |
| 20260505112002 | 34 | 352 | 0.9 | 6.1 | 0.00 | 0.00 | 0.00 | 71 | 1009.5 |
| 20260505111600 | 34 | 309 | 2.6 | 6.1 | 0.00 | 0.00 | 0.00 | 71 | 1009.4 |
| 20260505111102 | 34 | 309 | 0.9 | 4.3 | 0.00 | 0.00 | 0.00 | 72 | 1009.4 |
| 20260505110558 | 34 | 353 | 0.9 | 3.5 | 0.00 | 0.00 | 0.00 | 72 | 1009.3 |
| 20260505110105 | 34 | 13 | 0.9 | 4.3 | 0.00 | 0.00 | 0.00 | 72 | 1009.3 |
| 20260505102007 | 36 | 359 | 2.6 | 6.1 | 0.00 | 0.00 | 0.00 | 71 | 1009.1 |
| 20260505101508 | 36 | 353 | 0.0 | 7.8 | 0.00 | 0.00 | 0.00 | 71 | 1009.1 |
| 20260505101005 | 36 | 357 | 2.6 | 7.8 | 0.00 | 0.00 | 0.00 | 71 | 1009.1 |
| 20260505100506 | 36 | 13 | 2.6 | 7.0 | 0.00 | 0.00 | 0.00 | 70 | 1009.0 |
| 20260505100008 | 36 | 9 | 3.5 | 7.0 | 0.00 | 0.00 | 0.00 | 70 | 1009.0 |
| 20260505095505 | 36 | 29 | 0.9 | 7.8 | 0.00 | 0.00 | 0.00 | 70 | 1009.1 |
| 20260505095002 | 37 | 5 | 3.5 | 7.8 | 0.00 | 0.00 | 0.00 | 70 | 1009.0 |
| 20260505094607 | 37 | 333 | 0.9 | 5.2 | 0.00 | 0.00 | 0.00 | 70 | 1009.0 |
| 20260505094059 | 37 | 33 | 2.6 | 6.1 | 0.00 | 0.00 | 0.00 | 70 | 1008.9 |
| 20260505093558 | 37 | 338 | 1.7 | 6.1 | 0.00 | 0.00 | 0.00 | 70 | 1008.9 |
| 20260505093057 | 37 | 27 | 0.9 | 7.0 | 0.00 | 0.00 | 0.00 | 69 | 1008.8 |
| 20260505092556 | 37 | 319 | 1.7 | 7.0 | 0.00 | 0.00 | 0.00 | 69 | 1008.7 |
| 20260505092050 | 38 | 358 | 1.7 | 7.0 | 0.00 | 0.00 | 0.00 | 69 | 1008.7 |
| 20260505091557 | 38 | 354 | 3.5 | 7.0 | 0.00 | 0.00 | 0.00 | 69 | 1008.7 |
| 20260505091049 | 38 | 349 | 1.7 | 6.1 | 0.00 | 0.00 | 0.00 | 68 | 1008.7 |
| 20260505090548 | 38 | 324 | 0.9 | 10.4 | 0.00 | 0.00 | 0.00 | 68 | 1008.6 |
| 20260505090056 | 38 | 12 | 1.7 | 10.4 | 0.00 | 0.00 | 0.00 | 67 | 1008.4 |
| 20260505085547 | 38 | 332 | 2.6 | 10.4 | 0.00 | 0.00 | 0.00 | 67 | 1008.4 |
| 20260505085047 | 38 | 336 | 2.6 | 10.4 | 0.00 | 0.00 | 0.00 | 67 | 1008.4 |
| 20260505084549 | 38 | 343 | 3.5 | 8.7 | 0.00 | 0.00 | 0.00 | 67 | 1008.3 |
| 20260505084044 | 38 | 343 | 1.7 | 6.1 | 0.00 | 0.00 | 0.00 | 67 | 1008.3 |
| 20260505083544 | 38 | 343 | 2.6 | 7.8 | 0.00 | 0.00 | 0.00 | 67 | 1008.2 |
| 20260505083048 | 38 | 345 | 1.7 | 7.0 | 0.00 | 0.00 | 0.00 | 67 | 1008.1 |
| 20260505082543 | 38 | 309 | 2.6 | 6.1 | 0.00 | 0.00 | 0.00 | 67 | 1008.0 |
| 20260505082044 | 38 | 345 | 2.6 | 6.1 | 0.00 | 0.00 | 0.00 | 67 | 1008.0 |
| 20260505081555 | 38 | 345 | 1.7 | 6.1 | 0.00 | 0.00 | 0.00 | 67 | 1008.0 |
| 20260505081040 | 38 | 349 | 0.0 | 6.1 | 0.00 | 0.00 | 0.00 | 66 | 1007.9 |
| 20260505080541 | 38 | 353 | 2.6 | 7.8 | 0.00 | 0.00 | 0.00 | 66 | 1007.9 |
| 20260505080045 | 38 | 345 | 3.5 | 7.8 | 0.00 | 0.00 | 0.00 | 66 | 1007.9 |
| 20260505075537 | 38 | 309 | 1.7 | 7.0 | 0.00 | 0.00 | 0.00 | 66 | 1007.9 |
| 20260505075111 | 38 | 292 | 2.6 | 7.0 | 0.00 | 0.00 | 0.00 | 66 | 1007.9 |
| 20260505074547 | 38 | 313 | 2.6 | 7.8 | 0.00 | 0.00 | 0.00 | 66 | 1007.8 |
| 20260505074036 | 38 | 260 | 1.7 | 7.8 | 0.00 | 0.00 | 0.00 | 66 | 1007.8 |
| 20260505073535 | 38 | 307 | 2.6 | 7.8 | 0.00 | 0.00 | 0.00 | 66 | 1007.8 |
| 20260505073034 | 38 | 301 | 0.9 | 4.3 | 0.00 | 0.00 | 0.00 | 66 | 1007.8 |
| 20260505072532 | 38 | 259 | 0.9 | 7.8 | 0.00 | 0.00 | 0.00 | 65 | 1007.9 |
| 20260505072032 | 38 | 338 | 0.9 | 7.8 | 0.00 | 0.00 | 0.00 | 64 | 1007.9 |
| 20260505071531 | 38 | 336 | 1.7 | 5.2 | 0.00 | 0.00 | 0.00 | 64 | 1007.9 |
| 20260505071031 | 38 | 299 | 1.7 | 6.1 | 0.00 | 0.00 | 0.00 | 64 | 1007.9 |
| 20260505070531 | 38 | 314 | 0.9 | 6.1 | 0.00 | 0.00 | 0.00 | 63 | 1007.7 |
| 20260505070031 | 38 | 335 | 0.9 | 6.1 | 0.00 | 0.00 | 0.00 | 63 | 1007.8 |
| 20260505065532 | 39 | 323 | 1.7 | 7.0 | 0.00 | 0.00 | 0.00 | 63 | 1007.7 |
| 20260505065030 | 38 | 307 | 1.7 | 7.0 | 0.00 | 0.00 | 0.00 | 64 | 1007.8 |
| 20260505064530 | 39 | 287 | 2.6 | 7.8 | 0.00 | 0.00 | 0.00 | 64 | 1007.8 |
| 20260505064029 | 39 | 296 | 3.5 | 7.8 | 0.00 | 0.00 | 0.00 | 64 | 1007.9 |
| 20260505063527 | 39 | 294 | 1.7 | 7.0 | 0.00 | 0.00 | 0.00 | 63 | 1007.9 |
| 20260505063034 | 39 | 290 | 0.9 | 4.3 | 0.00 | 0.00 | 0.00 | 63 | 1007.7 |
| 20260505062526 | 39 | 263 | 0.9 | 6.1 | 0.00 | 0.00 | 0.00 | 63 | 1007.6 |
| 20260505062026 | 39 | 311 | 1.7 | 6.1 | 0.00 | 0.00 | 0.00 | 63 | 1007.7 |
| 20260505061530 | 39 | 326 | 0.9 | 3.5 | 0.00 | 0.00 | 0.00 | 62 | 1007.8 |
| 20260505061023 | 39 | 309 | 0.9 | 4.3 | 0.00 | 0.00 | 0.00 | 61 | 1007.8 |
| 20260505060522 | 39 | 298 | 0.0 | 4.3 | 0.00 | 0.00 | 0.00 | 60 | 1007.7 |
| 20260505060022 | 40 | 341 | 1.7 | 4.3 | 0.00 | 0.00 | 0.00 | 60 | 1007.7 |
| 20260505055520 | 40 | 1 | 0.9 | 6.1 | 0.00 | 0.00 | 0.00 | 59 | 1007.6 |
| 20260505055020 | 40 | 42 | 2.6 | 6.1 | 0.00 | 0.00 | 0.00 | 59 | 1007.7 |
| 20260505054523 | 40 | 349 | 1.7 | 6.1 | 0.00 | 0.00 | 0.00 | 59 | 1007.6 |
| 20260505054017 | 40 | 355 | 1.7 | 7.0 | 0.00 | 0.00 | 0.00 | 58 | 1007.6 |
| 20260505053517 | 40 | 346 | 0.9 | 7.0 | 0.00 | 0.00 | 0.00 | 58 | 1007.5 |
| 20260505053015 | 40 | 18 | 2.6 | 6.1 | 0.00 | 0.00 | 0.00 | 58 | 1007.5 |
| 20260505052514 | 40 | 336 | 0.9 | 4.3 | 0.00 | 0.00 | 0.00 | 58 | 1007.4 |
| 20260505052012 | 41 | 340 | 0.0 | 5.2 | 0.00 | 0.00 | 0.00 | 57 | 1007.3 |
| 20260505051512 | 41 | 328 | 0.9 | 5.2 | 0.00 | 0.00 | 0.00 | 56 | 1007.2 |
| 20260505051010 | 41 | 300 | 1.7 | 5.2 | 0.00 | 0.00 | 0.00 | 56 | 1007.3 |
| 20260505050509 | 41 | 302 | 0.9 | 7.0 | 0.00 | 0.00 | 0.00 | 56 | 1007.3 |
| 20260505041503 | 43 | 343 | 2.6 | 8.7 | 0.00 | 0.00 | 0.00 | 53 | 1006.9 |
| 20260505041001 | 42 | 347 | 3.5 | 7.8 | 0.00 | 0.00 | 0.00 | 54 | 1007.0 |
| 20260505040501 | 42 | 16 | 2.6 | 7.0 | 0.00 | 0.00 | 0.00 | 55 | 1007.0 |
| 20260505035559 | 43 | 330 | 1.7 | 7.0 | 0.00 | 0.00 | 0.00 | 57 | 1006.9 |
| 20260505035100 | 43 | 27 | 1.7 | 5.2 | 0.00 | 0.00 | 0.00 | 57 | 1006.9 |
| 20260505034558 | 43 | 357 | 2.6 | 5.2 | 0.00 | 0.00 | 0.00 | 56 | 1006.8 |
| 20260505034056 | 43 | 345 | 1.7 | 5.2 | 0.00 | 0.00 | 0.00 | 56 | 1006.8 |
| 20260505033555 | 43 | 328 | 2.6 | 7.8 | 0.00 | 0.00 | 0.00 | 56 | 1006.8 |
| 20260505033055 | 43 | 320 | 1.7 | 7.8 | 0.00 | 0.00 | 0.00 | 56 | 1006.7 |
| 20260505032553 | 43 | 309 | 0.9 | 5.2 | 0.00 | 0.00 | 0.00 | 55 | 1006.7 |
| 20260505032052 | 43 | 349 | 0.9 | 8.7 | 0.00 | 0.00 | 0.00 | 55 | 1006.7 |
| 20260505031552 | 43 | 11 | 0.9 | 8.7 | 0.00 | 0.00 | 0.00 | 55 | 1006.7 |
| 20260505031051 | 43 | 300 | 0.9 | 6.1 | 0.00 | 0.00 | 0.00 | 55 | 1006.6 |
| 20260505030554 | 43 | 26 | 0.9 | 6.1 | 0.00 | 0.00 | 0.00 | 55 | 1006.6 |
| 20260505030051 | 44 | 316 | 0.9 | 6.1 | 0.00 | 0.00 | 0.00 | 54 | 1006.6 |
| 20260505025550 | 44 | 320 | 1.7 | 6.1 | 0.00 | 0.00 | 0.00 | 54 | 1006.5 |
| 20260505025049 | 44 | 295 | 0.9 | 4.3 | 0.00 | 0.00 | 0.00 | 53 | 1006.4 |
| 20260505024605 | 44 | 311 | 0.9 | 4.3 | 0.00 | 0.00 | 0.00 | 53 | 1006.4 |
| 20260505024052 | 44 | 299 | 0.9 | 5.2 | 0.00 | 0.00 | 0.00 | 52 | 1006.2 |
| 20260505023546 | 44 | 328 | 1.7 | 6.1 | 0.00 | 0.00 | 0.00 | 51 | 1006.2 |
| 20260505023045 | 44 | 307 | 1.7 | 6.1 | 0.00 | 0.00 | 0.00 | 51 | 1006.2 |
| 20260505022545 | 44 | 316 | 1.7 | 5.2 | 0.00 | 0.00 | 0.00 | 51 | 1006.2 |
| 20260505022044 | 45 | 302 | 2.6 | 7.8 | 0.00 | 0.00 | 0.00 | 50 | 1006.1 |
| 20260505021601 | 45 | 331 | 1.7 | 7.8 | 0.00 | 0.00 | 0.00 | 50 | 1006.0 |
| 20260505021041 | 45 | 351 | 0.9 | 7.0 | 0.00 | 0.00 | 0.00 | 50 | 1005.9 |
| 20260505020541 | 45 | 290 | 0.9 | 7.0 | 0.00 | 0.00 | 0.00 | 49 | 1005.8 |
| 20260505020046 | 45 | 332 | 1.7 | 10.4 | 0.00 | 0.00 | 0.00 | 48 | 1005.8 |
| 20260505015539 | 45 | 332 | 2.6 | 11.3 | 0.00 | 0.00 | 0.00 | 48 | 1005.7 |
| 20260505015138 | 45 | 302 | 2.6 | 11.3 | 0.00 | 0.00 | 0.00 | 48 | 1005.7 |
| 20260505014539 | 45 | 5 | 1.7 | 10.4 | 0.00 | 0.00 | 0.00 | 47 | 1005.6 |
| 20260505014037 | 45 | 300 | 3.5 | 10.4 | 0.00 | 0.00 | 0.00 | 47 | 1005.6 |
| 20260505013540 | 45 | 302 | 3.5 | 10.4 | 0.00 | 0.00 | 0.00 | 47 | 1005.5 |
| 20260505013035 | 46 | 341 | 1.7 | 7.0 | 0.00 | 0.00 | 0.00 | 47 | 1005.5 |
| 20260505012534 | 46 | 340 | 0.9 | 9.6 | 0.00 | 0.00 | 0.00 | 46 | 1005.4 |
| 20260505012033 | 46 | 333 | 3.5 | 10.4 | 0.00 | 0.00 | 0.00 | 45 | 1005.2 |
| 20260505011544 | 46 | 280 | 3.5 | 10.4 | 0.00 | 0.00 | 0.00 | 45 | 1005.3 |
| 20260505011030 | 46 | 309 | 2.6 | 11.3 | 0.00 | 0.00 | 0.00 | 45 | 1005.1 |
| 20260505010532 | 47 | 304 | 4.3 | 14.8 | 0.00 | 0.00 | 0.00 | 44 | 1005.1 |
| 20260505010029 | 47 | 340 | 5.2 | 14.8 | 0.00 | 0.00 | 0.00 | 43 | 1005.0 |
| 20260505005530 | 47 | 298 | 4.3 | 14.8 | 0.00 | 0.00 | 0.00 | 43 | 1004.9 |
| 20260505005028 | 47 | 312 | 5.2 | 14.8 | 0.00 | 0.00 | 0.00 | 43 | 1004.9 |
| 20260505004538 | 47 | 318 | 1.7 | 7.8 | 0.00 | 0.00 | 0.00 | 44 | 1004.9 |
| 20260505004027 | 47 | 341 | 1.7 | 7.8 | 0.00 | 0.00 | 0.00 | 45 | 1005.0 |
| 20260505003528 | 47 | 345 | 2.6 | 11.3 | 0.00 | 0.00 | 0.00 | 44 | 1004.9 |
| 20260505003028 | 47 | 333 | 6.1 | 11.3 | 0.00 | 0.00 | 0.00 | 44 | 1004.9 |
| 20260505002527 | 47 | 339 | 5.2 | 11.3 | 0.00 | 0.00 | 0.00 | 44 | 1004.9 |
| 20260505002028 | 47 | 50 | 5.2 | 13.0 | 0.00 | 0.00 | 0.00 | 44 | 1004.9 |
| 20260505001525 | 47 | 4 | 4.3 | 13.0 | 0.00 | 0.00 | 0.00 | 44 | 1004.9 |
| 20260505001024 | 47 | 339 | 3.5 | 16.5 | 0.00 | 0.00 | 0.00 | 45 | 1004.8 |
| 20260505000524 | 47 | 337 | 5.2 | 16.5 | 0.00 | 0.00 | 0.00 | 44 | 1004.8 |
| 20260505000023 | 47 | 351 | 3.5 | 12.2 | 0.00 | 0.00 | 0.00 | 46 | 1004.8 |
| 20260504235523 | 47 | 316 | 3.5 | 15.6 | 0.00 | 0.00 | 0.00 | 47 | 1004.8 |
| 20260504235023 | 47 | 312 | 3.5 | 18.2 | 0.00 | 0.00 | 0.00 | 46 | 1004.7 |
| 20260504234520 | 48 | 9 | 8.7 | 18.2 | 0.00 | 0.00 | 0.00 | 45 | 1004.7 |
| 20260504234019 | 48 | 287 | 6.1 | 20.0 | 0.00 | 0.00 | 0.00 | 45 | 1004.5 |
| 20260504233519 | 49 | 295 | 8.7 | 20.0 | 0.00 | 0.00 | 0.00 | 44 | 1004.6 |
| 20260504233018 | 49 | 14 | 5.2 | 17.4 | 0.00 | 0.00 | 0.00 | 45 | 1004.5 |
| 20260504232516 | 49 | 333 | 7.8 | 17.4 | 0.00 | 0.00 | 0.00 | 44 | 1004.3 |
| 20260504232015 | 49 | 20 | 7.8 | 13.9 | 0.00 | 0.00 | 0.00 | 44 | 1004.1 |
| 20260504231515 | 49 | 12 | 6.1 | 15.6 | 0.00 | 0.00 | 0.00 | 44 | 1004.2 |
| 20260504231015 | 49 | 339 | 7.0 | 16.5 | 0.00 | 0.00 | 0.00 | 44 | 1004.1 |
| 20260504230512 | 50 | 18 | 7.0 | 13.0 | 0.00 | 0.00 | 0.00 | 43 | 1004.0 |
| 20260504230012 | 50 | 312 | 7.0 | 0.0 | 0.00 | 0.00 | 0.00 | 43 | 1003.9 |
| 20260504225512 | 50 | 298 | 9.6 | 19.1 | 0.00 | 0.00 | 0.00 | 42 | 1003.9 |
| 20260504225011 | 50 | 335 | 6.1 | 17.4 | 0.00 | 0.00 | 0.00 | 42 | 1003.8 |
| 20260504224510 | 50 | 307 | 5.2 | 17.4 | 0.00 | 0.00 | 0.00 | 43 | 1003.6 |
| 20260504224009 | 50 | 25 | 5.2 | 13.9 | 0.00 | 0.00 | 0.00 | 42 | 1003.6 |
| 20260504223508 | 50 | 349 | 7.0 | 16.5 | 0.00 | 0.00 | 0.00 | 41 | 1003.5 |
| 20260504223007 | 50 | 333 | 8.7 | 16.5 | 0.00 | 0.00 | 0.00 | 41 | 1003.4 |
| 20260504222506 | 51 | 343 | 6.1 | 12.2 | 0.00 | 0.00 | 0.00 | 42 | 1003.3 |
| 20260504222106 | 51 | 276 | 5.2 | 13.9 | 0.00 | 0.00 | 0.00 | 41 | 1003.2 |
| 20260504221504 | 52 | 311 | 5.2 | 16.5 | 0.00 | 0.00 | 0.00 | 42 | 1003.0 |
| 20260504221004 | 51 | 30 | 4.3 | 16.5 | 0.00 | 0.00 | 0.00 | 43 | 1003.0 |
| 20260504220505 | 51 | 311 | 7.8 | 16.5 | 0.00 | 0.00 | 0.00 | 42 | 1003.0 |
| 20260504220003 | 51 | 253 | 5.2 | 20.9 | 0.00 | 0.00 | 0.00 | 43 | 1003.0 |
| 20260504215503 | 52 | 343 | 7.0 | 18.2 | 0.00 | 0.00 | 0.00 | 40 | 1003.0 |
| 20260504215003 | 51 | 4 | 5.2 | 14.8 | 0.00 | 0.00 | 0.00 | 42 | 1002.9 |
| 20260504214502 | 51 | 349 | 4.3 | 14.8 | 0.00 | 0.00 | 0.00 | 42 | 1002.8 |
| 20260504214001 | 52 | 25 | 6.1 | 14.8 | 0.00 | 0.00 | 0.00 | 42 | 1002.9 |
| 20260504213601 | 52 | 318 | 5.2 | 17.4 | 0.00 | 0.00 | 0.00 | 44 | 1002.7 |
| 20260504213126 | 52 | 255 | 5.2 | 19.1 | 0.00 | 0.00 | 0.00 | 43 | 1002.7 |
| 20260504212602 | 52 | 341 | 7.8 | 19.1 | 0.00 | 0.00 | 0.00 | 43 | 1002.6 |
| 20260504212059 | 52 | 345 | 7.0 | 17.4 | 0.00 | 0.00 | 0.00 | 44 | 1002.5 |
| 20260504211557 | 52 | 315 | 6.1 | 19.1 | 0.00 | 0.00 | 0.00 | 45 | 1002.5 |
| 20260504211056 | 52 | 335 | 7.8 | 19.1 | 0.00 | 0.00 | 0.00 | 44 | 1002.5 |
| 20260504210556 | 52 | 357 | 8.7 | 15.6 | 0.00 | 0.00 | 0.00 | 44 | 1002.3 |
| 20260504210100 | 53 | 337 | 7.8 | 16.5 | 0.00 | 0.00 | 0.00 | 43 | 1002.3 |
| 20260504205553 | 53 | 309 | 7.0 | 16.5 | 0.00 | 0.00 | 0.00 | 45 | 1002.3 |
| 20260504205054 | 53 | 297 | 6.1 | 15.6 | 0.00 | 0.00 | 0.00 | 42 | 1002.2 |
| 20260504204603 | 54 | 355 | 7.0 | 17.4 | 0.00 | 0.00 | 0.00 | 43 | 1002.1 |
| 20260504204052 | 53 | 292 | 7.0 | 17.4 | 0.00 | 0.00 | 0.00 | 44 | 1002.0 |
| 20260504203554 | 53 | 267 | 9.6 | 17.4 | 0.00 | 0.00 | 0.00 | 43 | 1002.0 |
| 20260504203052 | 53 | 350 | 6.1 | 15.6 | 0.00 | 0.00 | 0.00 | 45 | 1001.9 |
| 20260504202552 | 53 | 345 | 6.1 | 15.6 | 0.00 | 0.00 | 0.00 | 45 | 1002.0 |
| 20260504202052 | 53 | 332 | 4.3 | 15.6 | 0.00 | 0.00 | 0.00 | 45 | 1001.9 |
| 20260504201550 | 53 | 334 | 8.7 | 14.8 | 0.00 | 0.00 | 0.00 | 44 | 1001.9 |
| 20260504201049 | 54 | 343 | 6.1 | 14.8 | 0.00 | 0.00 | 0.00 | 43 | 1001.8 |
| 20260504200551 | 54 | 25 | 6.1 | 13.9 | 0.00 | 0.00 | 0.00 | 43 | 1001.8 |
| 20260504200053 | 54 | 318 | 6.1 | 15.6 | 0.00 | 0.00 | 0.00 | 45 | 1001.7 |
| 20260504195548 | 54 | 292 | 7.8 | 17.4 | 0.00 | 0.00 | 0.00 | 44 | 1001.6 |
| 20260504195048 | 54 | 314 | 8.7 | 18.2 | 0.00 | 0.00 | 0.00 | 42 | 1001.6 |
| 20260504194547 | 54 | 338 | 8.7 | 18.2 | 0.00 | 0.00 | 0.00 | 42 | 1001.5 |
| 20260504194046 | 55 | 20 | 7.0 | 19.1 | 0.00 | 0.00 | 0.00 | 43 | 1001.5 |
| 20260504193548 | 54 | 307 | 7.8 | 20.0 | 0.00 | 0.00 | 0.00 | 44 | 1001.5 |
| 20260504193045 | 54 | 312 | 7.8 | 19.1 | 0.00 | 0.00 | 0.00 | 42 | 1001.3 |
| 20260504192545 | 55 | 345 | 7.0 | 17.4 | 0.00 | 0.00 | 0.00 | 43 | 1001.3 |
| 20260504192044 | 55 | 311 | 7.0 | 17.4 | 0.00 | 0.00 | 0.00 | 43 | 1001.3 |
| 20260504191543 | 55 | 5 | 3.5 | 22.6 | 0.00 | 0.00 | 0.00 | 44 | 1001.1 |
| 20260504191043 | 55 | 300 | 8.7 | 22.6 | 0.00 | 0.00 | 0.00 | 43 | 1000.9 |
| 20260504190542 | 55 | 14 | 7.0 | 18.2 | 0.00 | 0.00 | 0.00 | 43 | 1000.8 |
| 20260504190041 | 56 | 347 | 7.0 | 22.6 | 0.00 | 0.00 | 0.00 | 44 | 1000.9 |
| 20260504185541 | 55 | 333 | 7.8 | 22.6 | 0.00 | 0.00 | 0.00 | 44 | 1000.8 |
| 20260504185041 | 55 | 325 | 8.7 | 20.9 | 0.00 | 0.00 | 0.00 | 43 | 1000.8 |
| 20260504184539 | 55 | 354 | 7.8 | 15.6 | 0.00 | 0.00 | 0.00 | 43 | 1000.6 |